Conconully, WA (98819)

10:23 PM PDT on April 29, 2017 (GMT -0700)
Alkali Lake | | Change Station

Elev 1680 ft 48.53 °N, 119.55 °W | Updated 2 minutes ago

Overcast
Overcast
53.2 °F
Feels Like 53.2 °F
N
8.3
Wind Variable Wind from SSE

Today
High -- | Low -- °F
--% Chance of Precip.
Yesterday
High -- | Low -- °F
Precip. -- in
Pressure 30.01 in
Visibility 10.0 miles
Clouds Overcast 9500 ft
Dew Point 37 °F
Humidity 54%
Rainfall 0.00 in
Snow Depth Not available.
5:42 AM 8:11 PM
Waxing Crescent, 19% visible
METAR KOMK 300453Z AUTO 18012KT 10SM OVC095 13/00 A3000 RMK AO2 SLP161 T01330000
Pressure 30.01 in
Visibility 10.0 miles
Clouds Overcast 9500 ft
Dew Point 37 °F
Humidity 54%
Rainfall 0.00 in
Snow Depth Not available.
5:42 AM 8:11 PM
Waxing Crescent, 19% visible
METAR KOMK 300453Z AUTO 18012KT 10SM OVC095 13/00 A3000 RMK AO2 SLP161 T01330000

Get Severe Weather Alerts

Thanks for signing up!

Be on the lookout for a verification email in your inbox.

You'll start receiving the daily forecast at 8 AM.

×

10-Day Weather Forecast

Almanac

Astronomy

Apr. 29, 2017 Rise Set
Actual Time
Civil Twilight
Nautical Twilight
Astronomical Twilight
Moon
Length of Visible Light
Length of Day
Tomorrow will be .
, % of the Moon is Illuminated

Today's Extremes

State Highs State Lows

Community

WunderPhotos

WunderBlog® & News

Nearby

Air Quality

  Air Quality AQ Index Pollutant
Not available.

Snow Depth

Station Depth Elevation

Earthquake Activity

City Distance Mag. Time & Date
Minimum magnitude displayed is 2.5.

Coastal Water Temperatures

Place Temperature

Stations

Nearby Weather Stations

Station Location Temp. Windchill Dew Point Humidity Wind Precip. Elev Updated Type
                   

Watches & Warnings

There are currently no watches in effect.